createdAt,value
2023-01-13T00:03:37.605Z,99821.67
2023-01-13T00:18:40.631Z,99812.69
2023-01-13T00:33:44.811Z,99802.39
2023-01-13T00:48:49.496Z,99787.13
2023-01-13T01:03:54.155Z,99775.85
2023-01-13T01:18:57.862Z,99761.90
2023-01-13T01:34:01.588Z,99750.11
2023-01-13T01:49:29.537Z,99742.71
2023-01-13T02:04:40.431Z,99732.80
2023-01-13T02:20:18.113Z,99715.99
2023-01-13T02:35:29.481Z,99705.89
2023-01-13T02:50:41.495Z,99702.33
2023-01-13T03:05:48.153Z,99690.21
2023-01-13T03:21:22.892Z,99686.16
2023-01-13T03:36:30.046Z,99678.55
2023-01-13T03:51:39.238Z,99675.77
2023-01-13T04:07:29.255Z,99671.95
2023-01-13T04:22:31.928Z,99674.58
2023-01-13T04:37:35.044Z,99661.54
2023-01-13T04:52:38.696Z,99654.73
2023-01-13T05:07:41.221Z,99655.70
2023-01-13T05:23:02.442Z,99660.31
2023-01-13T05:38:05.568Z,99663.65
2023-01-13T05:53:08.139Z,99663.20
2023-01-13T06:08:10.611Z,99667.95
2023-01-13T06:23:13.462Z,99672.59
2023-01-13T06:38:19.065Z,99682.86
2023-01-13T06:53:36.131Z,99688.27
2023-01-13T07:08:38.604Z,99684.34
2023-01-13T07:23:41.678Z,99685.16
2023-01-13T07:38:45.253Z,99701.27
2023-01-13T07:53:48.430Z,99708.61
2023-01-13T08:08:51.306Z,99709.95
2023-01-13T08:23:54.197Z,99713.10
2023-01-13T08:38:57.530Z,99728.78
2023-01-13T08:54:00.451Z,99742.84
2023-01-13T09:09:03.134Z,99738.73
2023-01-13T09:24:06.609Z,99747.23
2023-01-13T09:39:09.745Z,99742.38
2023-01-13T09:54:27.731Z,99733.34
2023-01-13T10:09:53.596Z,99730.29
2023-01-13T10:25:09.339Z,99721.34
2023-01-13T10:40:18.431Z,99716.04
2023-01-13T10:55:38.389Z,99714.77
2023-01-13T11:10:49.444Z,99702.20
2023-01-13T11:26:02.102Z,99700.58
2023-01-13T11:41:44.456Z,99692.90
2023-01-13T11:57:05.027Z,99687.55
2023-01-13T12:12:35.041Z,99685.45
2023-01-13T12:28:04.233Z,99679.14
2023-01-13T12:59:23.012Z,99699.75
2023-01-13T13:14:56.567Z,99706.10
2023-01-13T13:30:55.179Z,99709.44
2023-01-13T13:46:55.231Z,99691.14
2023-01-13T14:02:24.436Z,99672.41
2023-01-13T14:17:31.756Z,99704.59
2023-01-13T14:32:36.982Z,99741.80
2023-01-13T14:47:40.078Z,99757.36
2023-01-13T15:02:57.243Z,99758.55
2023-01-13T15:18:05.377Z,99761.75
2023-01-13T15:33:12.030Z,99782.58
2023-01-13T15:48:15.401Z,99808.14
2023-01-13T16:03:18.585Z,99819.52
2023-01-13T16:18:23.836Z,99837.45
2023-01-13T16:33:26.597Z,99855.47
2023-01-13T16:48:29.924Z,99872.05
2023-01-13T17:03:35.278Z,99881.53
2023-01-13T17:18:37.846Z,99890.45
2023-01-13T17:33:40.671Z,99883.84
2023-01-13T17:48:44.190Z,99880.03
2023-01-13T18:03:48.659Z,99887.38
2023-01-13T18:18:53.396Z,99889.92
2023-01-13T18:33:56.688Z,99896.59
2023-01-13T18:49:00.259Z,99920.07
2023-01-13T19:04:10.193Z,99936.82
2023-01-13T19:19:13.277Z,99952.12
2023-01-13T19:34:16.531Z,99953.36
2023-01-13T19:49:19.912Z,99954.84
2023-01-13T20:04:29.224Z,99969.88
2023-01-13T20:19:32.748Z,99996.30
2023-01-13T20:34:35.983Z,100013.73
2023-01-13T20:49:39.409Z,100029.10
2023-01-13T21:04:43.021Z,100036.58
2023-01-13T21:19:45.844Z,100047.88
2023-01-13T21:34:48.873Z,100037.73
2023-01-13T21:50:12.422Z,100050.70
2023-01-13T22:05:18.482Z,100053.23
2023-01-13T22:20:22.919Z,100055.49
2023-01-13T22:35:26.092Z,100068.34
2023-01-13T22:50:28.947Z,100086.84
2023-01-13T23:05:31.718Z,100091.64
2023-01-13T23:20:34.697Z,100102.64
2023-01-13T23:35:37.511Z,100115.33
2023-01-13T23:50:42.504Z,100121.38
